createdAt,value
2018-12-08T00:00:59.177Z,19.10
2018-12-08T00:03:32.440Z,19.00
2018-12-08T00:06:06.729Z,19.00
2018-12-08T00:08:41.021Z,19.00
2018-12-08T00:11:13.506Z,19.00
2018-12-08T00:13:46.830Z,18.90
2018-12-08T00:16:19.352Z,18.80
2018-12-08T00:18:53.493Z,18.80
2018-12-08T00:21:32.334Z,18.70
2018-12-08T00:24:07.839Z,18.70
2018-12-08T00:26:47.002Z,18.70
2018-12-08T00:29:21.016Z,18.70
2018-12-08T00:31:54.134Z,18.60
2018-12-08T00:34:27.027Z,18.60
2018-12-08T00:37:01.061Z,18.60
2018-12-08T00:39:33.948Z,18.50
2018-12-08T00:42:06.291Z,18.40
2018-12-08T00:44:38.603Z,18.40
2018-12-08T00:47:10.675Z,18.30
2018-12-08T00:49:44.457Z,18.30
2018-12-08T00:52:16.924Z,18.20
2018-12-08T00:54:49.212Z,18.10
2018-12-08T00:57:21.566Z,18.00
2018-12-08T00:59:54.635Z,18.00
2018-12-08T01:02:27.002Z,17.90
2018-12-08T01:05:00.292Z,17.90
2018-12-08T01:07:33.491Z,17.80
2018-12-08T01:10:07.416Z,17.70
2018-12-08T01:12:39.884Z,17.70
2018-12-08T01:15:15.841Z,17.70
2018-12-08T01:17:48.467Z,17.60
2018-12-08T01:20:25.532Z,17.60
2018-12-08T01:26:24.970Z,17.50
2018-12-08T01:29:01.112Z,17.40
2018-12-08T01:31:34.738Z,17.40
2018-12-08T01:34:07.547Z,17.30
2018-12-08T01:40:02.715Z,17.20
2018-12-08T01:42:36.748Z,17.10
2018-12-08T01:45:11.468Z,17.10
2018-12-08T01:47:44.393Z,17.10
2018-12-08T01:50:21.892Z,17.10
2018-12-08T01:52:55.636Z,17.10
2018-12-08T01:55:31.149Z,17.00
2018-12-08T01:58:04.129Z,17.00
2018-12-08T02:00:40.768Z,17.00
2018-12-08T02:03:14.812Z,16.90
2018-12-08T02:05:49.611Z,16.90
2018-12-08T02:08:27.211Z,16.90
2018-12-08T02:11:05.637Z,16.80
2018-12-08T02:13:38.906Z,16.80
2018-12-08T02:16:14.168Z,16.80
2018-12-08T02:18:49.191Z,16.80
2018-12-08T02:21:26.552Z,16.80
2018-12-08T02:24:00.445Z,16.80
2018-12-08T02:30:11.490Z,16.70
2018-12-08T02:32:53.893Z,16.60
2018-12-08T02:35:26.936Z,16.60
2018-12-08T02:38:00.861Z,16.50
2018-12-08T02:40:35.359Z,16.40
2018-12-08T02:46:30.042Z,16.40
2018-12-08T02:49:05.241Z,16.30
2018-12-08T02:51:40.155Z,16.30
2018-12-08T02:54:12.918Z,16.30
2018-12-08T02:56:49.311Z,16.20
2018-12-08T02:59:22.964Z,16.20
2018-12-08T03:01:57.107Z,16.10
2018-12-08T03:04:33.223Z,16.10
2018-12-08T03:07:41.534Z,16.10
2018-12-08T03:10:15.466Z,16.10
2018-12-08T03:12:50.708Z,16.00
2018-12-08T03:15:26.894Z,16.00
2018-12-08T03:17:59.665Z,15.90
2018-12-08T03:20:33.201Z,16.00
2018-12-08T03:23:06.166Z,16.00
2018-12-08T03:25:40.269Z,16.00
2018-12-08T03:28:12.994Z,15.90
2018-12-08T03:30:46.275Z,15.90
2018-12-08T03:33:19.011Z,15.90
2018-12-08T03:35:52.245Z,15.90
2018-12-08T03:38:24.998Z,15.90
2018-12-08T03:40:58.504Z,16.00
2018-12-08T03:43:31.921Z,15.90
2018-12-08T03:46:05.211Z,15.90
2018-12-08T03:48:38.452Z,15.90
2018-12-08T03:51:14.208Z,15.90
2018-12-08T03:53:51.234Z,15.90
2018-12-08T03:56:27.516Z,15.90
2018-12-08T03:59:02.442Z,15.90
2018-12-08T04:01:38.471Z,15.90
2018-12-08T04:04:13.815Z,15.80
2018-12-08T04:06:51.934Z,15.90
2018-12-08T04:09:25.477Z,15.80
2018-12-08T04:12:01.491Z,15.80
2018-12-08T04:14:38.932Z,15.80
2018-12-08T04:17:13.147Z,15.70
2018-12-08T04:19:45.709Z,15.70
2018-12-08T04:29:08.225Z,15.60
2018-12-08T04:31:40.587Z,15.60
2018-12-08T04:34:12.991Z,15.60
2018-12-08T04:36:45.345Z,15.60
2018-12-08T04:39:20.105Z,15.60
2018-12-08T04:41:53.602Z,15.60
2018-12-08T04:44:29.167Z,15.60
2018-12-08T04:47:01.537Z,15.50
2018-12-08T04:52:56.291Z,15.30
2018-12-08T04:55:30.758Z,15.30
2018-12-08T04:58:03.607Z,15.30
2018-12-08T05:00:37.745Z,15.20
2018-12-08T05:03:11.176Z,15.20
2018-12-08T05:05:44.136Z,15.20
2018-12-08T05:08:17.310Z,15.20
2018-12-08T05:14:12.630Z,15.10
2018-12-08T05:16:44.769Z,15.00
2018-12-08T05:19:16.896Z,15.00
2018-12-08T05:21:49.395Z,14.90
2018-12-08T05:24:21.742Z,14.90
2018-12-08T05:26:54.910Z,14.90
2018-12-08T05:29:27.244Z,14.80
2018-12-08T05:31:59.439Z,14.80
2018-12-08T05:34:31.745Z,14.80
2018-12-08T05:37:04.123Z,14.80
2018-12-08T05:39:36.618Z,14.80
2018-12-08T05:42:09.829Z,14.80
2018-12-08T05:44:42.221Z,14.90
2018-12-08T05:47:14.750Z,15.00
2018-12-08T05:49:47.008Z,14.90
2018-12-08T05:52:19.266Z,14.90
2018-12-08T05:54:51.767Z,14.90
2018-12-08T05:57:26.477Z,14.90
2018-12-08T06:00:01.366Z,14.90
2018-12-08T06:02:33.768Z,14.90
2018-12-08T06:05:05.891Z,14.90
2018-12-08T06:07:38.179Z,14.90
2018-12-08T06:10:10.603Z,15.00
2018-12-08T06:12:42.939Z,15.00
2018-12-08T06:15:15.042Z,15.00
2018-12-08T06:17:47.171Z,15.00
2018-12-08T06:20:19.465Z,15.00
2018-12-08T06:22:51.663Z,15.00
2018-12-08T06:25:29.757Z,15.00
2018-12-08T06:28:25.592Z,15.00
2018-12-08T06:30:58.254Z,15.00
2018-12-08T06:33:31.584Z,15.00
2018-12-08T06:36:03.806Z,15.00
2018-12-08T06:38:36.001Z,15.00
2018-12-08T06:41:08.699Z,15.00
2018-12-08T06:43:40.786Z,15.00
2018-12-08T06:46:14.066Z,15.00
2018-12-08T06:52:07.805Z,15.00
2018-12-08T06:54:40.238Z,15.00
2018-12-08T06:57:12.744Z,15.00
2018-12-08T06:59:45.178Z,15.00
2018-12-08T07:02:17.700Z,15.00
2018-12-08T07:04:50.704Z,15.00
2018-12-08T07:07:24.266Z,15.10
2018-12-08T07:09:58.100Z,15.00
2018-12-08T07:12:30.691Z,14.80
2018-12-08T07:15:04.137Z,14.80
2018-12-08T07:17:37.904Z,14.70
2018-12-08T07:20:10.681Z,14.80
2018-12-08T07:22:43.205Z,14.80
2018-12-08T07:25:15.753Z,14.70
2018-12-08T07:27:48.253Z,14.70
2018-12-08T07:30:20.774Z,14.60
2018-12-08T07:32:54.274Z,14.50
2018-12-08T07:35:26.771Z,14.40
2018-12-08T07:38:00.225Z,14.40
2018-12-08T07:40:32.869Z,14.30
2018-12-08T07:43:05.460Z,14.30
2018-12-08T07:45:38.005Z,14.20
2018-12-08T07:48:11.072Z,14.30
2018-12-08T07:50:43.637Z,14.30
2018-12-08T07:53:17.847Z,14.20
2018-12-08T07:55:50.315Z,14.20
2018-12-08T07:58:22.764Z,14.20
2018-12-08T08:00:56.551Z,14.20
2018-12-08T08:03:29.040Z,14.10
2018-12-08T08:06:01.735Z,14.10
2018-12-08T08:08:34.188Z,14.10
2018-12-08T08:11:07.618Z,14.10
2018-12-08T08:13:40.083Z,14.10
2018-12-08T08:16:12.550Z,14.10
2018-12-08T08:18:44.977Z,14.10
2018-12-08T08:21:17.634Z,14.10
2018-12-08T08:23:50.047Z,14.10
2018-12-08T08:26:22.490Z,14.10
2018-12-08T08:28:55.020Z,14.10
2018-12-08T08:31:28.571Z,14.10
2018-12-08T08:34:10.429Z,14.20
2018-12-08T08:36:43.113Z,14.20
2018-12-08T08:39:15.765Z,14.20
2018-12-08T08:41:48.393Z,14.30
2018-12-08T08:44:28.710Z,14.30
2018-12-08T08:47:11.364Z,14.30
2018-12-08T08:49:48.123Z,14.30
2018-12-08T08:52:26.485Z,14.20
2018-12-08T08:55:00.240Z,14.20
2018-12-08T08:57:33.381Z,14.30
2018-12-08T09:00:06.220Z,14.20
2018-12-08T09:02:38.726Z,14.20
2018-12-08T09:05:11.559Z,14.20
2018-12-08T09:07:44.199Z,14.20
2018-12-08T09:10:17.515Z,14.20
2018-12-08T09:12:50.104Z,14.20
2018-12-08T09:18:47.836Z,14.20
2018-12-08T09:21:20.708Z,14.20
2018-12-08T09:23:53.460Z,14.20
2018-12-08T09:29:47.131Z,14.10
2018-12-08T09:32:19.546Z,14.00
2018-12-08T09:34:51.986Z,14.00
2018-12-08T09:37:24.377Z,13.90
2018-12-08T09:39:57.335Z,13.90
2018-12-08T09:42:29.821Z,13.80
2018-12-08T09:45:02.209Z,13.70
2018-12-08T09:50:56.033Z,13.80
2018-12-08T09:53:29.118Z,13.90
2018-12-08T09:56:01.632Z,13.90
2018-12-08T09:58:34.466Z,13.80
2018-12-08T10:01:07.082Z,13.80
2018-12-08T10:03:39.658Z,13.80
2018-12-08T10:09:43.881Z,13.90
2018-12-08T10:12:16.969Z,13.90
2018-12-08T10:14:49.906Z,13.90
2018-12-08T10:17:22.910Z,13.90
2018-12-08T10:19:55.691Z,13.90
2018-12-08T10:22:28.702Z,13.80
2018-12-08T10:25:02.134Z,13.80
2018-12-08T10:27:35.044Z,13.70
2018-12-08T10:30:09.301Z,13.70
2018-12-08T10:32:42.294Z,13.70
2018-12-08T10:38:47.385Z,13.70
2018-12-08T10:41:20.161Z,13.70
2018-12-08T10:43:52.828Z,13.70
2018-12-08T10:46:25.621Z,13.70
2018-12-08T10:48:58.437Z,13.60
2018-12-08T10:52:04.048Z,13.60
2018-12-08T10:54:36.632Z,13.70
2018-12-08T10:57:09.173Z,13.80
2018-12-08T10:59:42.493Z,13.90
2018-12-08T11:02:19.411Z,13.80
2018-12-08T11:04:52.981Z,13.70
2018-12-08T11:07:25.672Z,13.70
2018-12-08T11:09:59.060Z,13.60
2018-12-08T11:12:33.008Z,13.50
2018-12-08T11:15:05.817Z,13.50
2018-12-08T11:17:38.385Z,13.50
2018-12-08T11:23:32.495Z,13.50
2018-12-08T11:29:26.756Z,13.40
2018-12-08T11:31:59.651Z,13.40
2018-12-08T11:34:32.799Z,13.40
2018-12-08T11:37:05.744Z,13.40
2018-12-08T11:39:38.870Z,13.50
2018-12-08T11:42:11.876Z,13.50
2018-12-08T11:44:46.082Z,13.40
2018-12-08T11:47:19.896Z,13.40
2018-12-08T11:49:53.022Z,13.50
2018-12-08T11:52:26.085Z,13.40
2018-12-08T11:54:59.586Z,13.40
2018-12-08T11:57:32.739Z,13.40
2018-12-08T12:00:06.466Z,13.40
2018-12-08T12:02:39.363Z,13.40
2018-12-08T12:05:12.282Z,13.40
2018-12-08T12:07:46.476Z,13.30
2018-12-08T12:10:19.404Z,13.30
2018-12-08T12:12:52.632Z,13.30
2018-12-08T12:15:30.419Z,13.30
2018-12-08T12:18:03.539Z,13.30
2018-12-08T12:20:36.710Z,13.40
2018-12-08T12:23:09.863Z,13.40
2018-12-08T12:25:43.312Z,13.30
2018-12-08T12:28:16.534Z,13.40
2018-12-08T12:30:50.455Z,13.50
2018-12-08T12:33:23.512Z,13.50
2018-12-08T12:35:59.820Z,13.50
2018-12-08T12:38:32.920Z,13.60
2018-12-08T12:41:06.577Z,13.70
2018-12-08T12:43:39.760Z,13.70
2018-12-08T12:46:12.859Z,13.80
2018-12-08T12:48:46.013Z,14.00
2018-12-08T12:51:20.161Z,14.40
2018-12-08T12:53:53.425Z,14.90
2018-12-08T12:56:27.053Z,15.40
2018-12-08T12:59:00.284Z,15.80
2018-12-08T13:01:33.673Z,16.30
2018-12-08T13:04:06.766Z,16.80
2018-12-08T13:06:39.851Z,17.30
2018-12-08T13:09:17.158Z,17.60
2018-12-08T13:11:50.736Z,17.90
2018-12-08T13:14:26.307Z,18.00
2018-12-08T13:17:01.796Z,18.40
2018-12-08T13:19:45.934Z,18.80
2018-12-08T13:22:20.175Z,19.30
2018-12-08T13:28:24.162Z,20.20
2018-12-08T13:30:56.970Z,20.70
2018-12-08T13:33:30.270Z,21.10
2018-12-08T13:36:03.977Z,20.80
2018-12-08T13:38:37.461Z,20.80
2018-12-08T13:41:10.172Z,21.30
2018-12-08T13:43:45.185Z,21.60
2018-12-08T13:46:17.784Z,21.80
2018-12-08T13:48:50.545Z,21.60
2018-12-08T13:51:23.221Z,21.80
2018-12-08T13:53:56.738Z,21.90
2018-12-08T13:56:35.532Z,22.50
2018-12-08T13:59:10.582Z,22.50
2018-12-08T14:01:52.180Z,22.10
2018-12-08T14:04:24.810Z,22.00
2018-12-08T14:07:04.737Z,22.20
2018-12-08T14:09:37.431Z,22.50
2018-12-08T14:12:10.713Z,22.30
2018-12-08T14:14:43.306Z,22.80
2018-12-08T14:17:15.924Z,22.80
2018-12-08T14:19:48.502Z,23.10
2018-12-08T14:22:21.060Z,22.80
2018-12-08T14:24:53.638Z,22.70
2018-12-08T14:27:27.615Z,22.30
2018-12-08T14:30:00.173Z,22.10
2018-12-08T14:32:32.787Z,22.20
2018-12-08T14:35:09.024Z,22.20
2018-12-08T14:37:42.348Z,23.10
2018-12-08T14:40:14.909Z,23.00
2018-12-08T14:42:51.846Z,23.00
2018-12-08T14:45:24.415Z,22.80
2018-12-08T14:47:56.975Z,22.60
2018-12-08T14:50:32.573Z,23.00
2018-12-08T14:53:05.634Z,23.00
2018-12-08T14:55:38.935Z,22.70
2018-12-08T14:58:12.884Z,22.40
2018-12-08T15:00:50.014Z,22.50
2018-12-08T15:03:27.262Z,22.60
2018-12-08T15:06:18.311Z,22.90
2018-12-08T15:09:06.744Z,23.20
2018-12-08T15:12:13.255Z,23.70
2018-12-08T15:14:55.384Z,23.50
2018-12-08T15:20:25.551Z,23.60
2018-12-08T15:23:02.199Z,24.00
2018-12-08T15:25:46.440Z,24.30
2018-12-08T15:28:41.302Z,23.70
2018-12-08T15:37:32.910Z,23.70
2018-12-08T15:51:36.453Z,23.50
2018-12-08T15:54:11.306Z,24.20
2018-12-08T15:56:45.459Z,24.30
2018-12-08T15:59:18.354Z,23.90
2018-12-08T16:01:56.084Z,23.60
2018-12-08T16:04:32.120Z,23.80
2018-12-08T16:07:06.495Z,24.40
2018-12-08T16:09:40.174Z,24.60
2018-12-08T16:12:14.255Z,24.60
2018-12-08T16:14:59.626Z,25.00
2018-12-08T16:17:32.384Z,24.60
2018-12-08T16:20:12.072Z,24.30
2018-12-08T16:22:46.344Z,24.40
2018-12-08T16:25:22.417Z,24.70
2018-12-08T16:27:57.482Z,24.90
2018-12-08T16:30:30.421Z,24.50
2018-12-08T16:33:04.198Z,24.70
2018-12-08T16:35:36.998Z,25.40
2018-12-08T16:38:11.594Z,25.00
2018-12-08T16:40:44.293Z,25.30
2018-12-08T16:43:23.835Z,25.40
2018-12-08T16:46:02.004Z,24.70
2018-12-08T16:48:36.117Z,25.40
2018-12-08T16:51:08.764Z,26.00
2018-12-08T16:53:56.593Z,27.20
2018-12-08T16:56:32.007Z,27.80
2018-12-08T16:59:05.579Z,28.00
2018-12-08T17:01:38.221Z,28.70
2018-12-08T17:04:10.796Z,28.10
2018-12-08T17:06:44.785Z,27.70
2018-12-08T17:09:17.880Z,27.30
2018-12-08T17:11:50.900Z,28.20
2018-12-08T17:14:23.808Z,28.20
2018-12-08T17:16:57.554Z,28.10
2018-12-08T17:19:32.294Z,27.60
2018-12-08T17:22:05.439Z,27.30
2018-12-08T17:24:38.168Z,27.20
2018-12-08T17:27:11.445Z,27.10
2018-12-08T17:29:44.838Z,27.30
2018-12-08T17:32:17.430Z,27.50
2018-12-08T17:34:50.041Z,27.80
2018-12-08T17:37:24.770Z,28.50
2018-12-08T17:39:57.429Z,27.40
2018-12-08T17:42:30.183Z,27.30
2018-12-08T17:45:04.412Z,27.40
2018-12-08T17:47:38.440Z,27.30
2018-12-08T17:53:42.440Z,28.10
2018-12-08T17:56:15.208Z,28.00
2018-12-08T17:58:59.306Z,27.20
2018-12-08T18:01:35.804Z,27.20
2018-12-08T18:04:08.409Z,28.30
2018-12-08T18:06:44.749Z,28.60
2018-12-08T18:09:17.428Z,28.30
2018-12-08T18:11:51.388Z,27.10
2018-12-08T18:17:46.308Z,25.70
2018-12-08T18:20:19.200Z,26.10
2018-12-08T18:22:51.802Z,26.10
2018-12-08T18:25:24.499Z,26.80
2018-12-08T18:27:57.189Z,26.70
2018-12-08T18:30:29.905Z,26.70
2018-12-08T18:33:07.011Z,26.70
2018-12-08T18:35:41.524Z,26.50
2018-12-08T18:38:14.252Z,26.30
2018-12-08T18:40:46.959Z,25.70
2018-12-08T18:43:21.137Z,25.60
2018-12-08T18:45:53.969Z,26.50
2018-12-08T18:48:27.404Z,26.90
2018-12-08T18:50:59.978Z,25.70
2018-12-08T18:53:33.360Z,24.80
2018-12-08T18:56:06.071Z,24.40
2018-12-08T18:58:38.780Z,24.60
2018-12-08T19:01:11.940Z,24.90
2018-12-08T19:03:47.377Z,24.80
2018-12-08T19:06:20.217Z,24.70
2018-12-08T19:08:53.181Z,24.90
2018-12-08T19:11:27.880Z,26.10
2018-12-08T19:14:01.250Z,26.70
2018-12-08T19:16:34.750Z,26.80
2018-12-08T19:19:09.511Z,25.90
2018-12-08T19:21:42.168Z,25.90
2018-12-08T19:24:14.765Z,26.10
2018-12-08T19:26:47.394Z,26.20
2018-12-08T19:29:19.962Z,25.40
2018-12-08T19:31:52.718Z,24.90
2018-12-08T19:34:25.369Z,24.60
2018-12-08T19:36:58.015Z,24.70
2018-12-08T19:39:30.675Z,25.00
2018-12-08T19:42:03.402Z,25.30
2018-12-08T19:44:37.341Z,26.20
2018-12-08T19:47:09.908Z,26.60
2018-12-08T19:49:43.886Z,26.60
2018-12-08T19:52:19.751Z,26.00
2018-12-08T19:58:35.864Z,25.60
2018-12-08T20:01:08.810Z,25.40
2018-12-08T20:03:42.038Z,25.40
2018-12-08T20:06:14.954Z,25.60
2018-12-08T20:08:49.586Z,25.10
2018-12-08T20:11:24.170Z,24.90
2018-12-08T20:15:00.015Z,24.60
2018-12-08T20:17:34.243Z,24.60
2018-12-08T20:20:07.339Z,24.90
2018-12-08T20:22:40.754Z,25.20
2018-12-08T20:25:13.691Z,25.50
2018-12-08T20:27:46.492Z,25.60
2018-12-08T20:30:19.211Z,25.60
2018-12-08T20:32:52.793Z,25.60
2018-12-08T20:35:26.509Z,25.70
2018-12-08T20:37:59.370Z,25.80
2018-12-08T20:40:32.087Z,25.90
2018-12-08T20:43:04.854Z,26.00
2018-12-08T20:45:37.606Z,26.00
2018-12-08T20:48:12.324Z,25.70
2018-12-08T20:50:46.041Z,25.60
2018-12-08T20:53:21.187Z,26.00
2018-12-08T20:55:54.207Z,26.00
2018-12-08T20:58:29.116Z,26.30
2018-12-08T21:01:02.065Z,25.90
2018-12-08T21:03:35.738Z,25.90
2018-12-08T21:06:08.889Z,26.10
2018-12-08T21:08:43.166Z,26.90
2018-12-08T21:11:17.065Z,27.30
2018-12-08T21:13:51.122Z,27.90
2018-12-08T21:16:24.851Z,28.00
2018-12-08T21:18:57.692Z,27.80
2018-12-08T21:21:36.767Z,27.00
2018-12-08T21:24:15.661Z,26.60
2018-12-08T21:26:54.127Z,26.30
2018-12-08T21:29:27.937Z,25.90
2018-12-08T21:32:01.246Z,25.90
2018-12-08T21:34:38.422Z,25.40
2018-12-08T21:37:12.228Z,25.00
2018-12-08T21:39:49.328Z,24.90
2018-12-08T21:42:30.342Z,24.50
2018-12-08T21:45:09.588Z,24.40
2018-12-08T21:47:47.520Z,24.40
2018-12-08T21:50:23.146Z,24.40
2018-12-08T22:00:34.559Z,23.90
2018-12-08T22:03:09.225Z,23.80
2018-12-08T22:05:45.878Z,23.80
2018-12-08T22:08:20.928Z,23.90
2018-12-08T22:10:54.840Z,23.90
2018-12-08T22:13:28.870Z,24.00
2018-12-08T22:16:02.735Z,23.90
2018-12-08T22:18:39.606Z,23.90
2018-12-08T22:21:20.148Z,23.90
2018-12-08T22:23:54.559Z,24.30
2018-12-08T22:26:42.770Z,24.40
2018-12-08T22:29:19.198Z,24.10
2018-12-08T22:31:54.408Z,23.80
2018-12-08T22:34:28.039Z,23.60
2018-12-08T22:37:06.300Z,23.30
2018-12-08T22:39:42.301Z,23.20
2018-12-08T22:42:15.349Z,22.80
2018-12-08T22:44:51.048Z,22.60
2018-12-08T22:47:32.781Z,22.40
2018-12-08T22:50:07.275Z,22.30
2018-12-08T22:52:40.940Z,22.20
2018-12-08T22:55:15.527Z,22.10
2018-12-08T22:57:48.410Z,22.00
2018-12-08T23:00:48.719Z,21.80
2018-12-08T23:03:22.704Z,21.70
2018-12-08T23:05:56.436Z,21.70
2018-12-08T23:08:30.939Z,21.50
2018-12-08T23:11:05.811Z,21.40
2018-12-08T23:13:41.080Z,21.30
2018-12-08T23:16:15.508Z,21.20
2018-12-08T23:18:49.562Z,21.20
2018-12-08T23:21:29.308Z,21.10
2018-12-08T23:26:42.930Z,21.00
2018-12-08T23:29:16.490Z,21.00
2018-12-08T23:31:59.850Z,20.90
2018-12-08T23:34:33.634Z,20.80
2018-12-08T23:37:21.716Z,20.70
2018-12-08T23:42:49.327Z,20.60
2018-12-08T23:48:27.123Z,20.50
2018-12-08T23:51:10.783Z,20.40
2018-12-08T23:53:46.899Z,20.30
2018-12-08T23:56:22.040Z,20.20
